sensor_id;sensor_type;location;lat;lon;timestamp;P1;durP1;ratioP1;P2;durP2;ratioP2
51332;SDS011;37417;48.118;11.734;2022-12-18T00:00:04;32.35;;;13.15;;
51332;SDS011;37417;48.118;11.734;2022-12-18T00:02:50;31.35;;;13.85;;
51332;SDS011;37417;48.118;11.734;2022-12-18T00:05:36;34.45;;;14.45;;
51332;SDS011;37417;48.118;11.734;2022-12-18T00:08:22;40.72;;;13.50;;
51332;SDS011;37417;48.118;11.734;2022-12-18T00:11:10;34.88;;;15.15;;
51332;SDS011;37417;48.118;11.734;2022-12-18T00:13:56;32.85;;;14.63;;
51332;SDS011;37417;48.118;11.734;2022-12-18T00:16:45;30.35;;;13.02;;
51332;SDS011;37417;48.118;11.734;2022-12-18T00:19:31;37.97;;;13.85;;
51332;SDS011;37417;48.118;11.734;2022-12-18T00:22:17;32.70;;;14.00;;
51332;SDS011;37417;48.118;11.734;2022-12-18T00:25:02;40.47;;;17.30;;
51332;SDS011;37417;48.118;11.734;2022-12-18T00:27:48;36.00;;;13.63;;
51332;SDS011;37417;48.118;11.734;2022-12-18T00:30:34;18.80;;;9.75;;
51332;SDS011;37417;48.118;11.734;2022-12-18T00:33:19;27.35;;;13.70;;
51332;SDS011;37417;48.118;11.734;2022-12-18T00:36:06;21.20;;;8.60;;
51332;SDS011;37417;48.118;11.734;2022-12-18T00:38:53;23.95;;;13.00;;
51332;SDS011;37417;48.118;11.734;2022-12-18T00:41:38;19.83;;;11.32;;
51332;SDS011;37417;48.118;11.734;2022-12-18T00:44:42;24.80;;;10.95;;
51332;SDS011;37417;48.118;11.734;2022-12-18T00:47:28;42.83;;;18.70;;
51332;SDS011;37417;48.118;11.734;2022-12-18T00:50:13;45.50;;;17.08;;
51332;SDS011;37417;48.118;11.734;2022-12-18T00:52:59;33.30;;;16.02;;
51332;SDS011;37417;48.118;11.734;2022-12-18T00:55:45;31.23;;;14.68;;
51332;SDS011;37417;48.118;11.734;2022-12-18T00:58:31;41.63;;;15.70;;
51332;SDS011;37417;48.118;11.734;2022-12-18T01:01:16;44.17;;;17.90;;
51332;SDS011;37417;48.118;11.734;2022-12-18T01:04:03;30.33;;;13.88;;
51332;SDS011;37417;48.118;11.734;2022-12-18T01:06:48;42.50;;;16.65;;
51332;SDS011;37417;48.118;11.734;2022-12-18T01:09:34;42.47;;;16.85;;
51332;SDS011;37417;48.118;11.734;2022-12-18T01:12:20;27.15;;;10.65;;
51332;SDS011;37417;48.118;11.734;2022-12-18T01:15:06;29.40;;;15.15;;
51332;SDS011;37417;48.118;11.734;2022-12-18T01:17:52;31.50;;;16.48;;
51332;SDS011;37417;48.118;11.734;2022-12-18T01:20:38;41.17;;;16.20;;
51332;SDS011;37417;48.118;11.734;2022-12-18T01:23:23;46.17;;;18.65;;
51332;SDS011;37417;48.118;11.734;2022-12-18T01:26:12;43.15;;;16.58;;
51332;SDS011;37417;48.118;11.734;2022-12-18T01:28:58;48.17;;;21.40;;
51332;SDS011;37417;48.118;11.734;2022-12-18T01:31:44;31.90;;;14.43;;
51332;SDS011;37417;48.118;11.734;2022-12-18T01:34:29;40.47;;;15.07;;
51332;SDS011;37417;48.118;11.734;2022-12-18T01:37:15;49.28;;;18.40;;
51332;SDS011;37417;48.118;11.734;2022-12-18T01:40:00;49.78;;;17.58;;
51332;SDS011;37417;48.118;11.734;2022-12-18T01:42:51;44.30;;;19.40;;
51332;SDS011;37417;48.118;11.734;2022-12-18T01:45:37;46.40;;;17.20;;
51332;SDS011;37417;48.118;11.734;2022-12-18T01:48:23;34.10;;;16.27;;
51332;SDS011;37417;48.118;11.734;2022-12-18T01:51:09;44.13;;;17.42;;
51332;SDS011;37417;48.118;11.734;2022-12-18T01:53:55;45.55;;;17.38;;
51332;SDS011;37417;48.118;11.734;2022-12-18T01:56:41;46.03;;;18.10;;
51332;SDS011;37417;48.118;11.734;2022-12-18T01:59:27;46.58;;;18.33;;
51332;SDS011;37417;48.118;11.734;2022-12-18T02:02:13;40.28;;;18.80;;
51332;SDS011;37417;48.118;11.734;2022-12-18T02:04:59;43.50;;;18.73;;
51332;SDS011;37417;48.118;11.734;2022-12-18T02:07:55;49.28;;;17.92;;
51332;SDS011;37417;48.118;11.734;2022-12-18T02:17:03;47.95;;;20.95;;
51332;SDS011;37417;48.118;11.734;2022-12-18T02:23:01;30.75;;;14.00;;
51332;SDS011;37417;48.118;11.734;2022-12-18T02:28:54;30.88;;;12.70;;
51332;SDS011;37417;48.118;11.734;2022-12-18T02:31:44;50.25;;;19.58;;
51332;SDS011;37417;48.118;11.734;2022-12-18T02:34:31;33.95;;;14.25;;
51332;SDS011;37417;48.118;11.734;2022-12-18T02:37:18;24.70;;;12.48;;
51332;SDS011;37417;48.118;11.734;2022-12-18T02:40:04;38.08;;;16.80;;
51332;SDS011;37417;48.118;11.734;2022-12-18T02:42:50;46.83;;;17.90;;
51332;SDS011;37417;48.118;11.734;2022-12-18T02:45:36;51.65;;;19.80;;
51332;SDS011;37417;48.118;11.734;2022-12-18T02:48:24;45.65;;;18.25;;
51332;SDS011;37417;48.118;11.734;2022-12-18T02:51:19;48.97;;;18.38;;
51332;SDS011;37417;48.118;11.734;2022-12-18T02:54:09;52.88;;;20.95;;
51332;SDS011;37417;48.118;11.734;2022-12-18T02:56:56;41.88;;;16.65;;
51332;SDS011;37417;48.118;11.734;2022-12-18T02:59:49;48.15;;;20.20;;
51332;SDS011;37417;48.118;11.734;2022-12-18T03:02:43;48.75;;;18.80;;
51332;SDS011;37417;48.118;11.734;2022-12-18T03:05:33;25.00;;;11.93;;
51332;SDS011;37417;48.118;11.734;2022-12-18T03:08:24;38.28;;;16.92;;
51332;SDS011;37417;48.118;11.734;2022-12-18T03:11:11;44.25;;;18.83;;
51332;SDS011;37417;48.118;11.734;2022-12-18T03:13:57;38.25;;;14.32;;
51332;SDS011;37417;48.118;11.734;2022-12-18T03:16:43;40.13;;;17.98;;
51332;SDS011;37417;48.118;11.734;2022-12-18T03:19:31;40.33;;;19.23;;
51332;SDS011;37417;48.118;11.734;2022-12-18T03:22:17;45.28;;;17.65;;
51332;SDS011;37417;48.118;11.734;2022-12-18T03:25:04;38.45;;;15.43;;
51332;SDS011;37417;48.118;11.734;2022-12-18T03:27:51;27.27;;;11.18;;
51332;SDS011;37417;48.118;11.734;2022-12-18T03:30:39;23.90;;;11.45;;
51332;SDS011;37417;48.118;11.734;2022-12-18T03:33:30;40.17;;;16.63;;
51332;SDS011;37417;48.118;11.734;2022-12-18T03:36:16;38.55;;;13.57;;
51332;SDS011;37417;48.118;11.734;2022-12-18T03:39:02;45.63;;;18.65;;
51332;SDS011;37417;48.118;11.734;2022-12-18T03:41:59;28.33;;;12.13;;
51332;SDS011;37417;48.118;11.734;2022-12-18T03:44:57;38.47;;;15.18;;
51332;SDS011;37417;48.118;11.734;2022-12-18T03:47:49;34.25;;;15.10;;
51332;SDS011;37417;48.118;11.734;2022-12-18T03:50:49;39.10;;;16.15;;
51332;SDS011;37417;48.118;11.734;2022-12-18T03:56:44;49.33;;;18.13;;
51332;SDS011;37417;48.118;11.734;2022-12-18T03:59:30;42.47;;;13.18;;
51332;SDS011;37417;48.118;11.734;2022-12-18T04:02:16;44.95;;;15.45;;
51332;SDS011;37417;48.118;11.734;2022-12-18T04:05:03;35.05;;;14.50;;
51332;SDS011;37417;48.118;11.734;2022-12-18T04:07:50;32.95;;;12.20;;
51332;SDS011;37417;48.118;11.734;2022-12-18T04:10:37;47.13;;;16.20;;
51332;SDS011;37417;48.118;11.734;2022-12-18T04:13:29;34.00;;;14.18;;
51332;SDS011;37417;48.118;11.734;2022-12-18T04:16:17;29.48;;;14.25;;
51332;SDS011;37417;48.118;11.734;2022-12-18T04:19:02;35.13;;;15.20;;
51332;SDS011;37417;48.118;11.734;2022-12-18T04:21:48;47.13;;;16.20;;
51332;SDS011;37417;48.118;11.734;2022-12-18T04:24:34;41.75;;;16.52;;
51332;SDS011;37417;48.118;11.734;2022-12-18T04:27:19;20.35;;;8.60;;
51332;SDS011;37417;48.118;11.734;2022-12-18T04:30:05;32.95;;;14.00;;
51332;SDS011;37417;48.118;11.734;2022-12-18T04:32:51;44.88;;;17.45;;
51332;SDS011;37417;48.118;11.734;2022-12-18T04:35:36;37.95;;;15.43;;
51332;SDS011;37417;48.118;11.734;2022-12-18T04:38:22;40.38;;;16.65;;
51332;SDS011;37417;48.118;11.734;2022-12-18T04:41:07;32.05;;;15.30;;
51332;SDS011;37417;48.118;11.734;2022-12-18T04:43:53;44.20;;;18.17;;
51332;SDS011;37417;48.118;11.734;2022-12-18T04:46:39;48.70;;;17.20;;
51332;SDS011;37417;48.118;11.734;2022-12-18T04:49:24;52.80;;;16.52;;
51332;SDS011;37417;48.118;11.734;2022-12-18T04:52:10;36.38;;;15.13;;
51332;SDS011;37417;48.118;11.734;2022-12-18T04:54:55;39.15;;;15.73;;
51332;SDS011;37417;48.118;11.734;2022-12-18T04:57:41;39.22;;;16.27;;
51332;SDS011;37417;48.118;11.734;2022-12-18T05:00:26;34.83;;;13.82;;
51332;SDS011;37417;48.118;11.734;2022-12-18T05:03:12;47.80;;;17.25;;
51332;SDS011;37417;48.118;11.734;2022-12-18T05:05:57;45.42;;;16.52;;
51332;SDS011;37417;48.118;11.734;2022-12-18T05:08:43;31.83;;;15.05;;
51332;SDS011;37417;48.118;11.734;2022-12-18T05:11:28;36.28;;;14.95;;
51332;SDS011;37417;48.118;11.734;2022-12-18T05:14:14;44.50;;;16.38;;
51332;SDS011;37417;48.118;11.734;2022-12-18T05:16:59;21.70;;;11.23;;
51332;SDS011;37417;48.118;11.734;2022-12-18T05:19:45;32.08;;;14.68;;
51332;SDS011;37417;48.118;11.734;2022-12-18T05:22:31;39.92;;;15.70;;
51332;SDS011;37417;48.118;11.734;2022-12-18T05:25:16;37.40;;;16.80;;
51332;SDS011;37417;48.118;11.734;2022-12-18T05:28:02;31.92;;;14.00;;
51332;SDS011;37417;48.118;11.734;2022-12-18T05:30:51;41.95;;;17.00;;
51332;SDS011;37417;48.118;11.734;2022-12-18T05:33:37;42.50;;;16.92;;
51332;SDS011;37417;48.118;11.734;2022-12-18T05:36:23;53.22;;;23.65;;
51332;SDS011;37417;48.118;11.734;2022-12-18T05:39:08;37.45;;;16.65;;
51332;SDS011;37417;48.118;11.734;2022-12-18T05:41:54;36.08;;;13.85;;
51332;SDS011;37417;48.118;11.734;2022-12-18T05:44:39;36.53;;;14.65;;
51332;SDS011;37417;48.118;11.734;2022-12-18T05:47:26;35.50;;;15.38;;
51332;SDS011;37417;48.118;11.734;2022-12-18T05:50:11;36.10;;;13.70;;
51332;SDS011;37417;48.118;11.734;2022-12-18T05:52:57;36.67;;;16.98;;
51332;SDS011;37417;48.118;11.734;2022-12-18T05:55:42;35.30;;;15.85;;
51332;SDS011;37417;48.118;11.734;2022-12-18T05:58:28;41.67;;;16.35;;
51332;SDS011;37417;48.118;11.734;2022-12-18T06:03:59;36.80;;;14.55;;
51332;SDS011;37417;48.118;11.734;2022-12-18T06:06:45;34.13;;;14.00;;
51332;SDS011;37417;48.118;11.734;2022-12-18T06:09:30;42.30;;;16.20;;
51332;SDS011;37417;48.118;11.734;2022-12-18T06:12:16;41.50;;;16.25;;
51332;SDS011;37417;48.118;11.734;2022-12-18T06:15:01;29.65;;;14.10;;
51332;SDS011;37417;48.118;11.734;2022-12-18T06:17:47;34.67;;;12.40;;
51332;SDS011;37417;48.118;11.734;2022-12-18T06:20:32;34.97;;;15.93;;
51332;SDS011;37417;48.118;11.734;2022-12-18T06:23:18;34.55;;;13.93;;
51332;SDS011;37417;48.118;11.734;2022-12-18T06:26:07;30.00;;;13.10;;
51332;SDS011;37417;48.118;11.734;2022-12-18T06:28:53;31.33;;;13.90;;
51332;SDS011;37417;48.118;11.734;2022-12-18T06:31:39;31.98;;;15.30;;
51332;SDS011;37417;48.118;11.734;2022-12-18T06:34:24;24.70;;;10.85;;
51332;SDS011;37417;48.118;11.734;2022-12-18T06:37:10;31.63;;;12.25;;
51332;SDS011;37417;48.118;11.734;2022-12-18T06:39:55;28.67;;;14.65;;
51332;SDS011;37417;48.118;11.734;2022-12-18T06:42:41;31.77;;;13.30;;
51332;SDS011;37417;48.118;11.734;2022-12-18T06:45:27;35.67;;;19.42;;
51332;SDS011;37417;48.118;11.734;2022-12-18T06:48:12;19.38;;;8.95;;
51332;SDS011;37417;48.118;11.734;2022-12-18T06:50:58;33.42;;;12.93;;
51332;SDS011;37417;48.118;11.734;2022-12-18T06:53:44;26.70;;;13.77;;
51332;SDS011;37417;48.118;11.734;2022-12-18T06:56:30;25.63;;;8.90;;
51332;SDS011;37417;48.118;11.734;2022-12-18T06:59:15;38.08;;;17.42;;
51332;SDS011;37417;48.118;11.734;2022-12-18T07:02:01;34.17;;;14.50;;
51332;SDS011;37417;48.118;11.734;2022-12-18T07:04:46;33.03;;;16.40;;
51332;SDS011;37417;48.118;11.734;2022-12-18T07:07:33;21.52;;;11.88;;
51332;SDS011;37417;48.118;11.734;2022-12-18T07:10:19;38.28;;;14.60;;
51332;SDS011;37417;48.118;11.734;2022-12-18T07:13:04;29.33;;;13.52;;
51332;SDS011;37417;48.118;11.734;2022-12-18T07:15:50;40.75;;;14.95;;
51332;SDS011;37417;48.118;11.734;2022-12-18T07:18:35;38.25;;;14.13;;
51332;SDS011;37417;48.118;11.734;2022-12-18T07:21:21;27.40;;;11.93;;
51332;SDS011;37417;48.118;11.734;2022-12-18T07:24:07;39.22;;;14.50;;
51332;SDS011;37417;48.118;11.734;2022-12-18T07:26:52;29.95;;;12.55;;
51332;SDS011;37417;48.118;11.734;2022-12-18T07:29:38;31.67;;;12.55;;
51332;SDS011;37417;48.118;11.734;2022-12-18T07:32:23;32.78;;;13.93;;
51332;SDS011;37417;48.118;11.734;2022-12-18T07:35:09;17.25;;;11.10;;
51332;SDS011;37417;48.118;11.734;2022-12-18T07:37:54;19.10;;;8.52;;
51332;SDS011;37417;48.118;11.734;2022-12-18T07:40:40;42.55;;;18.33;;
51332;SDS011;37417;48.118;11.734;2022-12-18T07:43:25;30.30;;;14.27;;
51332;SDS011;37417;48.118;11.734;2022-12-18T07:46:11;33.40;;;14.40;;
51332;SDS011;37417;48.118;11.734;2022-12-18T07:49:00;34.05;;;13.77;;
51332;SDS011;37417;48.118;11.734;2022-12-18T07:51:46;32.88;;;13.82;;
51332;SDS011;37417;48.118;11.734;2022-12-18T07:54:34;33.67;;;13.48;;
51332;SDS011;37417;48.118;11.734;2022-12-18T07:57:19;37.83;;;12.52;;
51332;SDS011;37417;48.118;11.734;2022-12-18T08:00:05;39.40;;;14.85;;
51332;SDS011;37417;48.118;11.734;2022-12-18T08:02:51;22.60;;;10.35;;
51332;SDS011;37417;48.118;11.734;2022-12-18T08:05:36;25.65;;;11.77;;
51332;SDS011;37417;48.118;11.734;2022-12-18T08:08:22;20.48;;;9.35;;
51332;SDS011;37417;48.118;11.734;2022-12-18T08:11:08;18.80;;;10.02;;
51332;SDS011;37417;48.118;11.734;2022-12-18T08:13:53;29.02;;;14.02;;
51332;SDS011;37417;48.118;11.734;2022-12-18T08:16:39;38.78;;;13.25;;
51332;SDS011;37417;48.118;11.734;2022-12-18T08:19:24;27.15;;;12.07;;
51332;SDS011;37417;48.118;11.734;2022-12-18T08:22:10;27.75;;;12.80;;
51332;SDS011;37417;48.118;11.734;2022-12-18T08:24:56;24.90;;;12.23;;
51332;SDS011;37417;48.118;11.734;2022-12-18T08:27:41;30.77;;;13.98;;
51332;SDS011;37417;48.118;11.734;2022-12-18T08:30:27;35.90;;;12.65;;
51332;SDS011;37417;48.118;11.734;2022-12-18T08:33:12;31.35;;;13.70;;
51332;SDS011;37417;48.118;11.734;2022-12-18T08:35:58;13.85;;;7.50;;
51332;SDS011;37417;48.118;11.734;2022-12-18T08:38:44;18.85;;;8.98;;
51332;SDS011;37417;48.118;11.734;2022-12-18T08:41:30;14.77;;;7.63;;
51332;SDS011;37417;48.118;11.734;2022-12-18T08:44:16;26.05;;;10.68;;
51332;SDS011;37417;48.118;11.734;2022-12-18T08:47:20;28.55;;;13.38;;
51332;SDS011;37417;48.118;11.734;2022-12-18T08:50:06;27.67;;;11.50;;
51332;SDS011;37417;48.118;11.734;2022-12-18T08:52:51;31.98;;;11.88;;
51332;SDS011;37417;48.118;11.734;2022-12-18T08:55:37;23.02;;;10.82;;
51332;SDS011;37417;48.118;11.734;2022-12-18T08:58:23;23.15;;;11.50;;
51332;SDS011;37417;48.118;11.734;2022-12-18T09:01:09;25.50;;;11.25;;
51332;SDS011;37417;48.118;11.734;2022-12-18T09:03:55;30.45;;;13.38;;
51332;SDS011;37417;48.118;11.734;2022-12-18T09:06:41;28.58;;;12.80;;
51332;SDS011;37417;48.118;11.734;2022-12-18T09:09:26;26.85;;;10.48;;
51332;SDS011;37417;48.118;11.734;2022-12-18T09:12:12;30.83;;;13.15;;
51332;SDS011;37417;48.118;11.734;2022-12-18T09:14:57;26.77;;;12.88;;
51332;SDS011;37417;48.118;11.734;2022-12-18T09:17:43;25.13;;;10.85;;
51332;SDS011;37417;48.118;11.734;2022-12-18T09:20:29;25.85;;;11.75;;
51332;SDS011;37417;48.118;11.734;2022-12-18T09:23:15;27.00;;;12.35;;
51332;SDS011;37417;48.118;11.734;2022-12-18T09:26:00;25.40;;;11.18;;
51332;SDS011;37417;48.118;11.734;2022-12-18T09:28:46;23.00;;;10.75;;
51332;SDS011;37417;48.118;11.734;2022-12-18T09:31:31;20.08;;;7.00;;
51332;SDS011;37417;48.118;11.734;2022-12-18T09:34:17;23.13;;;11.63;;
51332;SDS011;37417;48.118;11.734;2022-12-18T09:37:03;27.45;;;10.38;;
51332;SDS011;37417;48.118;11.734;2022-12-18T09:39:48;30.23;;;12.18;;
51332;SDS011;37417;48.118;11.734;2022-12-18T09:42:34;23.25;;;10.48;;
51332;SDS011;37417;48.118;11.734;2022-12-18T09:45:19;25.42;;;10.95;;
51332;SDS011;37417;48.118;11.734;2022-12-18T09:48:05;26.10;;;10.65;;
51332;SDS011;37417;48.118;11.734;2022-12-18T09:50:53;24.42;;;12.88;;
51332;SDS011;37417;48.118;11.734;2022-12-18T09:53:39;15.10;;;6.57;;
51332;SDS011;37417;48.118;11.734;2022-12-18T09:56:26;15.18;;;8.32;;
51332;SDS011;37417;48.118;11.734;2022-12-18T09:59:24;20.33;;;9.48;;
51332;SDS011;37417;48.118;11.734;2022-12-18T10:02:18;14.77;;;6.97;;
51332;SDS011;37417;48.118;11.734;2022-12-18T10:05:06;29.10;;;12.57;;
51332;SDS011;37417;48.118;11.734;2022-12-18T10:08:03;28.38;;;13.55;;
51332;SDS011;37417;48.118;11.734;2022-12-18T10:10:53;20.05;;;9.32;;
51332;SDS011;37417;48.118;11.734;2022-12-18T10:13:42;19.52;;;9.82;;
51332;SDS011;37417;48.118;11.734;2022-12-18T10:28:06;21.67;;;10.15;;
51332;SDS011;37417;48.118;11.734;2022-12-18T10:30:52;25.20;;;9.38;;
51332;SDS011;37417;48.118;11.734;2022-12-18T10:33:38;25.73;;;11.00;;
51332;SDS011;37417;48.118;11.734;2022-12-18T10:36:24;13.82;;;8.07;;
51332;SDS011;37417;48.118;11.734;2022-12-18T10:45:16;20.00;;;9.27;;
51332;SDS011;37417;48.118;11.734;2022-12-18T10:48:05;26.85;;;11.02;;
51332;SDS011;37417;48.118;11.734;2022-12-18T10:51:02;22.75;;;11.18;;
51332;SDS011;37417;48.118;11.734;2022-12-18T10:53:54;19.10;;;6.80;;
51332;SDS011;37417;48.118;11.734;2022-12-18T10:56:41;23.10;;;9.38;;
51332;SDS011;37417;48.118;11.734;2022-12-18T10:59:27;20.55;;;8.60;;
51332;SDS011;37417;48.118;11.734;2022-12-18T11:02:33;23.92;;;10.77;;
51332;SDS011;37417;48.118;11.734;2022-12-18T11:08:20;19.98;;;9.65;;
51332;SDS011;37417;48.118;11.734;2022-12-18T11:11:07;20.83;;;8.48;;
51332;SDS011;37417;48.118;11.734;2022-12-18T11:16:47;18.88;;;9.32;;
51332;SDS011;37417;48.118;11.734;2022-12-18T11:19:36;19.88;;;10.00;;
51332;SDS011;37417;48.118;11.734;2022-12-18T11:22:23;9.55;;;6.32;;
51332;SDS011;37417;48.118;11.734;2022-12-18T11:28:01;25.85;;;11.82;;
51332;SDS011;37417;48.118;11.734;2022-12-18T11:30:46;29.85;;;9.40;;
51332;SDS011;37417;48.118;11.734;2022-12-18T11:33:32;24.52;;;10.52;;
51332;SDS011;37417;48.118;11.734;2022-12-18T11:36:17;24.33;;;11.07;;
51332;SDS011;37417;48.118;11.734;2022-12-18T11:39:12;17.33;;;9.75;;
51332;SDS011;37417;48.118;11.734;2022-12-18T11:45:07;16.80;;;8.55;;
51332;SDS011;37417;48.118;11.734;2022-12-18T11:47:58;23.55;;;9.82;;
51332;SDS011;37417;48.118;11.734;2022-12-18T11:53:36;15.73;;;8.00;;
51332;SDS011;37417;48.118;11.734;2022-12-18T11:56:29;19.80;;;8.98;;
51332;SDS011;37417;48.118;11.734;2022-12-18T12:14:29;20.80;;;8.43;;
51332;SDS011;37417;48.118;11.734;2022-12-18T12:17:20;21.70;;;8.35;;
51332;SDS011;37417;48.118;11.734;2022-12-18T12:23:12;20.60;;;9.50;;
51332;SDS011;37417;48.118;11.734;2022-12-18T12:37:50;21.73;;;10.05;;
51332;SDS011;37417;48.118;11.734;2022-12-18T12:40:43;24.38;;;11.27;;
51332;SDS011;37417;48.118;11.734;2022-12-18T12:46:19;14.73;;;8.60;;
51332;SDS011;37417;48.118;11.734;2022-12-18T12:49:09;21.42;;;10.07;;
51332;SDS011;37417;48.118;11.734;2022-12-18T12:54:45;30.08;;;11.57;;
51332;SDS011;37417;48.118;11.734;2022-12-18T12:57:33;23.48;;;12.48;;
51332;SDS011;37417;48.118;11.734;2022-12-18T13:00:19;16.17;;;7.40;;
51332;SDS011;37417;48.118;11.734;2022-12-18T13:05:54;24.25;;;11.65;;
51332;SDS011;37417;48.118;11.734;2022-12-18T13:08:51;23.88;;;10.95;;
51332;SDS011;37417;48.118;11.734;2022-12-18T13:11:38;22.92;;;12.35;;
51332;SDS011;37417;48.118;11.734;2022-12-18T13:14:43;24.00;;;12.30;;
51332;SDS011;37417;48.118;11.734;2022-12-18T13:17:29;22.00;;;10.35;;
51332;SDS011;37417;48.118;11.734;2022-12-18T13:20:16;20.23;;;9.45;;
51332;SDS011;37417;48.118;11.734;2022-12-18T13:23:19;25.27;;;12.07;;
51332;SDS011;37417;48.118;11.734;2022-12-18T13:28:53;29.60;;;11.30;;
51332;SDS011;37417;48.118;11.734;2022-12-18T13:34:25;23.88;;;10.70;;
51332;SDS011;37417;48.118;11.734;2022-12-18T13:49:02;27.38;;;10.73;;
51332;SDS011;37417;48.118;11.734;2022-12-18T13:51:50;23.42;;;8.25;;
51332;SDS011;37417;48.118;11.734;2022-12-18T13:54:40;20.70;;;10.13;;
51332;SDS011;37417;48.118;11.734;2022-12-18T14:03:24;21.05;;;10.77;;
51332;SDS011;37417;48.118;11.734;2022-12-18T14:06:11;20.15;;;10.10;;
51332;SDS011;37417;48.118;11.734;2022-12-18T14:08:57;13.52;;;8.13;;
51332;SDS011;37417;48.118;11.734;2022-12-18T14:11:47;16.20;;;7.93;;
51332;SDS011;37417;48.118;11.734;2022-12-18T14:14:33;30.77;;;14.30;;
51332;SDS011;37417;48.118;11.734;2022-12-18T14:17:19;20.85;;;9.27;;
51332;SDS011;37417;48.118;11.734;2022-12-18T14:20:05;21.55;;;9.18;;
51332;SDS011;37417;48.118;11.734;2022-12-18T14:22:58;21.63;;;12.10;;
51332;SDS011;37417;48.118;11.734;2022-12-18T14:25:45;32.67;;;11.80;;
51332;SDS011;37417;48.118;11.734;2022-12-18T14:28:31;30.83;;;12.73;;
51332;SDS011;37417;48.118;11.734;2022-12-18T14:31:20;24.10;;;11.25;;
51332;SDS011;37417;48.118;11.734;2022-12-18T14:34:08;25.38;;;11.43;;
51332;SDS011;37417;48.118;11.734;2022-12-18T14:37:00;13.48;;;7.10;;
51332;SDS011;37417;48.118;11.734;2022-12-18T14:39:55;19.13;;;10.18;;
51332;SDS011;37417;48.118;11.734;2022-12-18T14:42:42;16.73;;;8.75;;
51332;SDS011;37417;48.118;11.734;2022-12-18T14:45:37;18.30;;;12.35;;
51332;SDS011;37417;48.118;11.734;2022-12-18T14:48:39;26.50;;;10.90;;
51332;SDS011;37417;48.118;11.734;2022-12-18T14:51:26;24.92;;;11.75;;
51332;SDS011;37417;48.118;11.734;2022-12-18T14:54:16;20.92;;;11.10;;
51332;SDS011;37417;48.118;11.734;2022-12-18T14:57:05;23.88;;;12.82;;
51332;SDS011;37417;48.118;11.734;2022-12-18T14:59:51;30.08;;;12.32;;
51332;SDS011;37417;48.118;11.734;2022-12-18T15:02:37;29.40;;;13.70;;
51332;SDS011;37417;48.118;11.734;2022-12-18T15:05:26;24.90;;;11.00;;
51332;SDS011;37417;48.118;11.734;2022-12-18T15:08:35;28.25;;;12.45;;
51332;SDS011;37417;48.118;11.734;2022-12-18T15:11:34;28.67;;;13.10;;
51332;SDS011;37417;48.118;11.734;2022-12-18T15:14:21;38.85;;;17.25;;
51332;SDS011;37417;48.118;11.734;2022-12-18T15:17:17;24.83;;;13.02;;
51332;SDS011;37417;48.118;11.734;2022-12-18T15:20:09;27.83;;;9.93;;
51332;SDS011;37417;48.118;11.734;2022-12-18T15:22:55;27.52;;;13.60;;
51332;SDS011;37417;48.118;11.734;2022-12-18T15:25:40;13.13;;;7.57;;
51332;SDS011;37417;48.118;11.734;2022-12-18T15:28:27;31.20;;;12.40;;
51332;SDS011;37417;48.118;11.734;2022-12-18T15:36:45;26.92;;;11.05;;
51332;SDS011;37417;48.118;11.734;2022-12-18T15:39:31;17.55;;;6.82;;
51332;SDS011;37417;48.118;11.734;2022-12-18T15:42:17;22.55;;;10.18;;
51332;SDS011;37417;48.118;11.734;2022-12-18T15:45:21;19.50;;;9.25;;
51332;SDS011;37417;48.118;11.734;2022-12-18T15:54:05;20.92;;;9.75;;
51332;SDS011;37417;48.118;11.734;2022-12-18T15:56:51;18.88;;;10.43;;
51332;SDS011;37417;48.118;11.734;2022-12-18T15:59:56;27.08;;;11.75;;
51332;SDS011;37417;48.118;11.734;2022-12-18T16:02:43;26.90;;;14.70;;
51332;SDS011;37417;48.118;11.734;2022-12-18T16:05:29;26.38;;;11.43;;
51332;SDS011;37417;48.118;11.734;2022-12-18T16:08:15;25.70;;;11.57;;
51332;SDS011;37417;48.118;11.734;2022-12-18T16:11:00;26.77;;;12.02;;
51332;SDS011;37417;48.118;11.734;2022-12-18T16:13:46;27.20;;;12.10;;
51332;SDS011;37417;48.118;11.734;2022-12-18T16:16:31;30.17;;;13.50;;
51332;SDS011;37417;48.118;11.734;2022-12-18T16:19:17;19.05;;;7.25;;
51332;SDS011;37417;48.118;11.734;2022-12-18T16:22:03;17.00;;;9.20;;
51332;SDS011;37417;48.118;11.734;2022-12-18T16:24:49;25.33;;;12.07;;
51332;SDS011;37417;48.118;11.734;2022-12-18T16:27:34;29.17;;;12.70;;
51332;SDS011;37417;48.118;11.734;2022-12-18T16:30:21;27.10;;;13.02;;
51332;SDS011;37417;48.118;11.734;2022-12-18T16:33:08;33.00;;;12.95;;
51332;SDS011;37417;48.118;11.734;2022-12-18T16:35:53;29.50;;;13.20;;
51332;SDS011;37417;48.118;11.734;2022-12-18T16:38:39;34.33;;;13.25;;
51332;SDS011;37417;48.118;11.734;2022-12-18T16:41:24;31.42;;;13.18;;
51332;SDS011;37417;48.118;11.734;2022-12-18T16:44:16;22.50;;;11.55;;
51332;SDS011;37417;48.118;11.734;2022-12-18T16:47:01;28.38;;;11.98;;
51332;SDS011;37417;48.118;11.734;2022-12-18T16:49:47;36.25;;;13.13;;
51332;SDS011;37417;48.118;11.734;2022-12-18T16:52:36;29.55;;;14.35;;
51332;SDS011;37417;48.118;11.734;2022-12-18T16:55:21;31.27;;;13.48;;
51332;SDS011;37417;48.118;11.734;2022-12-18T16:58:07;28.90;;;14.57;;
51332;SDS011;37417;48.118;11.734;2022-12-18T17:00:52;26.80;;;12.98;;
51332;SDS011;37417;48.118;11.734;2022-12-18T17:03:38;30.90;;;13.50;;
51332;SDS011;37417;48.118;11.734;2022-12-18T17:06:24;27.15;;;10.55;;
51332;SDS011;37417;48.118;11.734;2022-12-18T17:09:11;31.60;;;13.75;;
51332;SDS011;37417;48.118;11.734;2022-12-18T17:11:57;30.10;;;12.88;;
51332;SDS011;37417;48.118;11.734;2022-12-18T17:14:43;31.92;;;14.82;;
51332;SDS011;37417;48.118;11.734;2022-12-18T17:17:29;33.60;;;13.68;;
51332;SDS011;37417;48.118;11.734;2022-12-18T17:20:14;33.55;;;12.88;;
51332;SDS011;37417;48.118;11.734;2022-12-18T17:23:00;32.78;;;14.40;;
51332;SDS011;37417;48.118;11.734;2022-12-18T17:25:45;37.88;;;16.30;;
51332;SDS011;37417;48.118;11.734;2022-12-18T17:28:31;28.92;;;13.45;;
51332;SDS011;37417;48.118;11.734;2022-12-18T17:31:18;37.65;;;13.70;;
51332;SDS011;37417;48.118;11.734;2022-12-18T17:34:03;28.33;;;11.77;;
51332;SDS011;37417;48.118;11.734;2022-12-18T17:36:49;31.17;;;12.95;;
51332;SDS011;37417;48.118;11.734;2022-12-18T17:39:35;24.27;;;11.95;;
51332;SDS011;37417;48.118;11.734;2022-12-18T17:42:21;29.98;;;12.85;;
51332;SDS011;37417;48.118;11.734;2022-12-18T17:45:06;39.78;;;14.57;;
51332;SDS011;37417;48.118;11.734;2022-12-18T17:47:52;35.60;;;15.45;;
51332;SDS011;37417;48.118;11.734;2022-12-18T17:50:38;27.52;;;12.40;;
51332;SDS011;37417;48.118;11.734;2022-12-18T17:53:23;27.92;;;14.52;;
51332;SDS011;37417;48.118;11.734;2022-12-18T17:56:12;25.75;;;11.77;;
51332;SDS011;37417;48.118;11.734;2022-12-18T17:58:59;23.08;;;10.60;;
51332;SDS011;37417;48.118;11.734;2022-12-18T18:01:44;36.45;;;13.45;;
51332;SDS011;37417;48.118;11.734;2022-12-18T18:04:30;24.88;;;10.85;;
51332;SDS011;37417;48.118;11.734;2022-12-18T18:07:15;32.28;;;14.25;;
51332;SDS011;37417;48.118;11.734;2022-12-18T18:10:01;30.58;;;14.50;;